createdAt,value
2019-01-14T00:01:39.711Z,5.10
2019-01-14T00:06:46.608Z,5.17
2019-01-14T00:11:52.270Z,5.19
2019-01-14T00:16:57.862Z,5.25
2019-01-14T00:22:05.101Z,5.10
2019-01-14T00:27:11.123Z,5.19
2019-01-14T00:32:16.687Z,5.32
2019-01-14T00:37:22.277Z,5.17
2019-01-14T00:42:28.152Z,5.15
2019-01-14T00:47:33.765Z,5.11
2019-01-14T00:52:39.349Z,5.32
2019-01-14T00:57:44.982Z,5.25
2019-01-14T01:02:50.765Z,5.25
2019-01-14T01:07:56.346Z,5.32
2019-01-14T01:13:02.404Z,5.29
2019-01-14T01:18:08.192Z,5.05
2019-01-14T01:23:15.098Z,4.94
2019-01-14T01:28:20.755Z,4.79
2019-01-14T01:33:26.355Z,4.78
2019-01-14T01:38:31.930Z,4.72
2019-01-14T01:43:38.944Z,4.71
2019-01-14T01:48:44.618Z,4.77
2019-01-14T01:53:50.237Z,4.55
2019-01-14T01:58:55.867Z,4.53
2019-01-14T02:04:05.032Z,4.50
2019-01-14T02:09:11.008Z,4.56
2019-01-14T02:14:16.676Z,4.83
2019-01-14T02:19:22.365Z,4.69
2019-01-14T02:24:27.955Z,4.71
2019-01-14T02:29:33.527Z,4.60
2019-01-14T02:34:39.144Z,4.32
2019-01-14T02:39:44.748Z,4.50
2019-01-14T02:44:51.122Z,4.34
2019-01-14T02:49:57.835Z,4.33
2019-01-14T02:55:05.150Z,4.17
2019-01-14T03:00:15.200Z,4.29
2019-01-14T03:05:21.025Z,4.09
2019-01-14T03:10:26.634Z,4.12
2019-01-14T03:15:32.285Z,4.00
2019-01-14T03:20:37.962Z,3.99
2019-01-14T03:25:43.894Z,4.14
2019-01-14T03:30:49.499Z,3.98
2019-01-14T03:35:55.559Z,3.99
2019-01-14T03:41:01.324Z,4.07
2019-01-14T03:46:08.539Z,4.08
2019-01-14T03:51:14.154Z,3.82
2019-01-14T03:56:19.867Z,3.83
2019-01-14T04:01:25.487Z,3.86
2019-01-14T04:06:31.120Z,3.78
2019-01-14T04:11:36.968Z,3.82
2019-01-14T04:16:43.670Z,3.61
2019-01-14T04:21:49.274Z,3.75
2019-01-14T04:26:55.481Z,3.64
2019-01-14T04:32:01.104Z,3.70
2019-01-14T04:37:08.332Z,3.46
2019-01-14T04:42:13.970Z,3.51
2019-01-14T04:47:19.730Z,3.29
2019-01-14T04:52:25.366Z,3.40
2019-01-14T04:57:32.107Z,3.31
2019-01-14T05:02:37.689Z,3.30
2019-01-14T05:07:43.435Z,3.11
2019-01-14T05:12:49.248Z,3.26
2019-01-14T05:17:54.839Z,3.27
2019-01-14T05:23:00.470Z,3.07
2019-01-14T05:28:06.169Z,3.01
2019-01-14T05:33:11.751Z,3.07
2019-01-14T05:38:17.357Z,2.84
2019-01-14T05:43:23.000Z,2.76
2019-01-14T05:48:29.465Z,2.74
2019-01-14T05:53:35.065Z,2.57
2019-01-14T05:58:40.713Z,2.56
2019-01-14T06:03:46.270Z,2.34
2019-01-14T06:08:51.934Z,2.36
2019-01-14T06:13:57.536Z,2.46
2019-01-14T06:19:03.306Z,2.31
2019-01-14T06:24:08.966Z,2.23
2019-01-14T06:29:15.758Z,2.19
2019-01-14T06:34:21.360Z,2.39
2019-01-14T06:39:26.969Z,2.43
2019-01-14T06:44:33.220Z,2.36
2019-01-14T06:49:40.404Z,2.40
2019-01-14T06:54:46.082Z,2.37
2019-01-14T06:59:51.764Z,2.39
2019-01-14T07:04:57.372Z,2.48
2019-01-14T07:10:03.237Z,2.35
2019-01-14T07:15:09.527Z,2.51
2019-01-14T07:20:16.747Z,2.51
2019-01-14T07:25:22.439Z,2.60
2019-01-14T07:30:28.476Z,2.40
2019-01-14T07:35:34.103Z,2.46
2019-01-14T07:40:39.723Z,2.49
2019-01-14T07:45:45.488Z,2.25
2019-01-14T07:50:53.932Z,2.39
2019-01-14T07:55:59.550Z,2.44
2019-01-14T08:01:06.538Z,2.45
2019-01-14T08:06:12.471Z,2.58
2019-01-14T08:11:18.301Z,2.54
2019-01-14T08:16:23.885Z,2.68
2019-01-14T08:21:29.503Z,2.63
2019-01-14T08:26:35.757Z,2.66
2019-01-14T08:31:41.426Z,2.43
2019-01-14T08:36:47.010Z,2.50
2019-01-14T08:41:56.078Z,2.57
2019-01-14T08:47:01.681Z,2.81
2019-01-14T08:52:08.981Z,2.57
2019-01-14T08:57:16.195Z,2.59
2019-01-14T09:02:21.858Z,2.54
2019-01-14T09:07:28.161Z,2.51
2019-01-14T09:12:34.135Z,2.63
2019-01-14T09:17:39.900Z,2.44
2019-01-14T09:22:45.532Z,2.53
2019-01-14T09:27:51.450Z,2.79
2019-01-14T09:32:57.306Z,2.98
2019-01-14T09:38:03.099Z,2.94
2019-01-14T09:43:08.851Z,3.13
2019-01-14T09:48:14.556Z,2.83
2019-01-14T09:53:20.269Z,2.78
2019-01-14T09:58:25.942Z,2.85
2019-01-14T10:03:31.606Z,2.94
2019-01-14T10:08:43.088Z,2.78
2019-01-14T10:13:46.123Z,2.88
2019-01-14T10:18:51.735Z,2.72
2019-01-14T10:23:57.345Z,2.94
2019-01-14T10:29:03.132Z,2.88
2019-01-14T10:34:08.789Z,2.85
2019-01-14T10:39:14.427Z,2.83
2019-01-14T10:44:20.065Z,2.84
2019-01-14T10:49:25.676Z,2.87
2019-01-14T10:54:31.493Z,2.73
2019-01-14T11:04:48.133Z,3.05
2019-01-14T11:09:54.100Z,2.95
2019-01-14T11:15:02.876Z,3.07
2019-01-14T11:20:14.104Z,3.01
2019-01-14T11:25:20.290Z,2.88
2019-01-14T11:30:33.293Z,2.91
2019-01-14T11:35:40.378Z,3.27
2019-01-14T11:40:45.999Z,2.93
2019-01-14T11:45:52.944Z,3.15
2019-01-14T11:50:58.890Z,2.97
2019-01-14T11:56:07.049Z,3.11
2019-01-14T12:01:12.703Z,2.97
2019-01-14T12:06:18.326Z,2.95
2019-01-14T12:11:23.958Z,2.83
2019-01-14T12:16:29.611Z,2.79
2019-01-14T12:21:36.772Z,2.77
2019-01-14T12:26:43.617Z,2.67
2019-01-14T12:31:49.268Z,2.82
2019-01-14T12:36:55.323Z,3.08
2019-01-14T12:42:01.013Z,3.17
2019-01-14T12:47:07.372Z,3.07
2019-01-14T12:52:13.081Z,3.27
2019-01-14T12:57:19.495Z,3.23
2019-01-14T13:02:24.891Z,2.50
2019-01-14T13:07:30.549Z,2.93
2019-01-14T13:12:36.176Z,3.17
2019-01-14T13:17:41.789Z,3.26
2019-01-14T13:22:47.453Z,2.93
2019-01-14T13:27:53.197Z,3.15
2019-01-14T13:32:59.346Z,2.95
2019-01-14T13:38:05.073Z,3.22
2019-01-14T13:43:11.042Z,2.22
2019-01-14T13:48:16.651Z,2.01
2019-01-14T13:53:22.812Z,1.97
2019-01-14T13:58:28.419Z,1.91
2019-01-14T14:03:34.079Z,1.75
2019-01-14T14:08:39.783Z,1.64
2019-01-14T14:13:45.389Z,1.64
2019-01-14T14:18:51.217Z,1.62
2019-01-14T14:23:57.297Z,1.51
2019-01-14T14:29:02.950Z,1.48
2019-01-14T14:34:08.656Z,1.17
2019-01-14T14:39:14.342Z,-0.25
2019-01-14T14:44:19.931Z,-0.07
2019-01-14T14:49:25.524Z,0.34
2019-01-14T14:59:36.145Z,0.79
2019-01-14T15:04:41.854Z,1.12
2019-01-14T15:09:47.507Z,1.21
2019-01-14T15:14:53.152Z,1.24
2019-01-14T15:19:58.814Z,1.08
2019-01-14T15:25:07.962Z,0.98
2019-01-14T15:30:17.186Z,1.10
2019-01-14T15:35:22.892Z,0.84
2019-01-14T15:40:30.845Z,0.86
2019-01-14T15:45:36.862Z,0.80
2019-01-14T15:50:42.490Z,0.47
2019-01-14T15:55:48.280Z,0.50
2019-01-14T16:00:54.452Z,0.60
2019-01-14T16:06:01.074Z,0.51
2019-01-14T16:11:08.221Z,0.54
2019-01-14T16:16:13.890Z,0.13
2019-01-14T16:21:20.165Z,0.32
2019-01-14T16:26:25.859Z,0.33
2019-01-14T16:31:31.606Z,0.38
2019-01-14T16:36:37.243Z,0.26
2019-01-14T16:41:42.989Z,0.23
2019-01-14T16:46:50.249Z,0.08
2019-01-14T16:51:58.330Z,0.27
2019-01-14T16:57:09.481Z,-0.18
2019-01-14T17:02:15.663Z,0.07
2019-01-14T17:07:21.359Z,0.15
2019-01-14T17:12:27.105Z,0.24
2019-01-14T17:17:36.094Z,0.15
2019-01-14T17:22:44.539Z,0.10
2019-01-14T17:27:51.158Z,-0.02
2019-01-14T17:32:56.884Z,0.08
2019-01-14T17:38:02.669Z,-0.29
2019-01-14T17:43:11.498Z,-0.17
2019-01-14T17:48:19.217Z,-0.11
2019-01-14T17:53:27.028Z,-0.14
2019-01-14T17:58:36.729Z,0.09
2019-01-14T18:03:48.661Z,-0.15
2019-01-14T18:08:57.882Z,-0.17
2019-01-14T18:14:10.795Z,-0.06
2019-01-14T18:19:21.438Z,-0.13
2019-01-14T18:24:33.312Z,-0.11
2019-01-14T18:29:44.708Z,-0.11
2019-01-14T18:34:54.654Z,0.01
2019-01-14T18:40:00.515Z,-0.23
2019-01-14T18:45:08.448Z,-0.07
2019-01-14T18:50:18.006Z,-0.17
2019-01-14T18:55:23.804Z,-0.10
2019-01-14T19:00:31.089Z,-0.18
2019-01-14T19:05:37.251Z,-0.34
2019-01-14T19:10:43.052Z,-0.19
2019-01-14T19:15:48.778Z,-0.24
2019-01-14T19:20:55.990Z,-0.24
2019-01-14T19:26:01.993Z,-0.21
2019-01-14T19:31:09.214Z,-0.23
2019-01-14T19:36:17.211Z,-0.45
2019-01-14T19:41:25.593Z,-0.23
2019-01-14T19:46:32.172Z,-0.07
2019-01-14T19:51:38.805Z,-0.28
2019-01-14T19:56:47.601Z,-0.13
2019-01-14T20:01:54.031Z,-0.21
2019-01-14T20:07:10.472Z,-0.14
2019-01-14T20:12:13.059Z,-0.20
2019-01-14T20:17:20.341Z,-0.36
2019-01-14T20:22:29.551Z,-0.40
2019-01-14T20:27:35.393Z,-0.31
2019-01-14T20:32:41.666Z,-0.26
2019-01-14T20:37:48.307Z,-0.21
2019-01-14T20:42:54.458Z,-0.16
2019-01-14T20:48:07.666Z,0.01
2019-01-14T20:53:14.361Z,-0.17
2019-01-14T20:58:21.833Z,-0.17
2019-01-14T21:03:27.771Z,-0.15
2019-01-14T21:08:33.539Z,-0.11
2019-01-14T21:13:39.437Z,-0.31
2019-01-14T21:18:45.143Z,-0.22
2019-01-14T21:23:51.919Z,-0.33
2019-01-14T21:28:58.000Z,-0.03
2019-01-14T21:34:03.805Z,0.05
2019-01-14T21:39:12.236Z,-0.10
2019-01-14T21:44:21.389Z,0.11
2019-01-14T21:49:29.253Z,0.12
2019-01-14T21:54:35.028Z,0.13
2019-01-14T21:59:41.910Z,-0.06
2019-01-14T22:04:47.657Z,0.03
2019-01-14T22:09:54.634Z,0.00
2019-01-14T22:15:00.547Z,0.12
2019-01-14T22:20:11.646Z,0.18
2019-01-14T22:25:17.413Z,0.18
2019-01-14T22:30:26.034Z,0.13
2019-01-14T22:35:31.823Z,0.10
2019-01-14T22:40:37.803Z,0.27
2019-01-14T22:45:43.486Z,0.17
2019-01-14T22:50:49.165Z,0.32
2019-01-14T22:55:56.162Z,0.28
2019-01-14T23:01:22.284Z,0.40
2019-01-14T23:06:41.517Z,0.52
2019-01-14T23:11:53.016Z,0.51
2019-01-14T23:16:55.254Z,0.63
2019-01-14T23:22:00.886Z,0.56
2019-01-14T23:27:06.822Z,0.71
2019-01-14T23:32:12.470Z,0.58
2019-01-14T23:37:18.082Z,0.70
2019-01-14T23:42:23.735Z,0.80
2019-01-14T23:47:29.357Z,0.86
2019-01-14T23:59:09.912Z,0.86
